PPR Request

Ennakkolupa on pakollinen lentoonlähtöjä ja laskuja varten. Pyydä ennakkolupa tästä.

Aerodrome Status

Updated 24 MAR 2017 12:23 LT

  • EFHF ATIS 122.700 U/S. AWS-METAR (ILHF) available at http://www.ilmailusaa.fi. ATIS EFHK 135.075 (ARR) 114.200 (DEP).
  • RWY Condition: Good
  • TWY Condition: Good, occasional water patches
  • APN Condition: Medium, water patches
  • Part of the TWY Lights near K, L, M and on APN 1 U/S.
  • During winter season CONFIRM RWY availability / condition.
  • Night time PPR requests minimum two hours before the flight.
  • Preferred RWY 36

Contact duty officer at +358 20 7545 129 for more information.

Weather


Helsinki Malmi lentokenttä
AWS ILHF 241140Z AUTO 30007KT CAVOK 03/M07 Q1020=

METAR EFHK 241150Z 29016G28KT 260V320 2500 -SHSN SCT030CB BKN045 02/M06 Q1020 BECMG 8000=
TAF EFHK 241131Z 2412/2512 28010KT 9999 FEW025 TEMPO 2412/2415 4000 -SHSN FEW030CB PROB40 2412/2414 30015G25KT BECMG 2500/2502 4000 -SN BKN008 TEMPO 2502/2508 1500 BKN004 BECMG 2509/2511 9999 BKN010=

Laskukierroslentäminen

Laskukierroslentäminen vaatii ennakkoluvan. Laskukierrosvaraukset puhelimitse Kenttäpäivystäjälle 020 7545 129.

Laskukierroslentäminen on mahdollista seuraavina aikoina (paikallista aikaa):

  • maanantaista perjantaihin 09.00–19.00
  • lauantaisin 10.00–17.00
  • sunnuntaisin 11.00–17.00

Muina aikoina sekä yleisinä arkipyhä- ja juhlapäivinä (REF AIP GEN 2.1-4) laskukierroslentäminen on kielletty.